Data for 03/01/2017

Time Sea-Level Adjusted Pressure Absolute Pressure Temperature Relative Humidity Dew Point   
(mb) (inHg) (mb) (inHg) (C) (F) (%) (C) (F)
00:05 1018 30.06 847 25.01 -6.7 20 44 -17.1 1.2
00:10 1018 30.06 847 25.01 -6.7 19.9 44 -17 1.4
00:15 1018 30.06 847 25.01 -6.7 20 45 -16.7 1.9
00:20 1018 30.06 848 25.04 -6.6 20.1 45 -16.7 1.9
00:25 1018 30.06 848 25.04 -6.6 20 45 -16.7 2
00:30 1018 30.06 848 25.04 -6.6 20.1 45 -16.7 2
00:35 1019 30.09 848 25.04 -6.6 20.1 46 -16.4 2.5
00:40 1019 30.09 848 25.04 -6.8 19.8 48 -16.1 3
00:45 1019 30.09 848 25.04 -7.3 18.8 50 -16.2 2.9
00:50 1019 30.09 848 25.04 -7.3 18.8 50 -16 3.1
00:55 1019 30.09 848 25.04 -7.4 18.8 50 -16.1 3
01:00 1019 30.09 848 25.04 -7.3 18.9 51 -15.8 3.5
01:05 1019 30.09 848 25.04 -7.3 18.8 50 -16.1 3
01:10 1019 30.09 848 25.04 -7.2 19.1 49 -16.1 3
01:15 1019 30.09 848 25.04 -7 19.4 49 -15.9 3.4
01:20 1019 30.09 848 25.04 -7 19.4 49 -16 3.2
01:25 1019 30.09 849 25.07 -7 19.4 49 -15.9 3.3
01:30 1019 30.09 849 25.07 -7 19.4 49 -15.9 3.3
01:35 1020 30.12 849 25.07 -7.1 19.3 50 -15.8 3.5
01:40 1020 30.12 849 25.07 -7.2 19.1 49 -16.1 3.1
01:45 1020 30.12 849 25.07 -7.1 19.3 50 -15.9 3.3
01:50 1020 30.12 849 25.07 -6.9 19.5 48 -16.1 3
01:55 1020 30.12 849 25.07 -6.8 19.8 47 -16.2 2.9
02:00 1020 30.12 849 25.07 -6.7 20 48 -16 3.1
02:05 1020 30.12 849 25.07 -6.6 20 47 -16.2 2.9
02:10 1020 30.12 849 25.07 -6.5 20.3 47 -16 3.2
02:15 1020 30.12 849 25.07 -6.8 19.8 51 -15.4 4.3
02:20 1020 30.12 849 25.07 -7.5 18.5 51 -16 3.3
02:25 1020 30.12 849 25.07 -7.4 18.6 52 -15.7 3.8
02:30 1020 30.12 849 25.07 -7.4 18.6 51 -15.9 3.4
02:35 1020 30.12 849 25.07 -7.3 18.9 51 -15.7 3.7
02:40 1020 30.12 849 25.07 -7.2 19.1 52 -15.4 4.3
02:45 1020 30.12 849 25.07 -7.3 18.9 50 -15.9 3.3
02:50 1020 30.12 849 25.07 -7.8 18 53 -15.8 3.6
02:55 1020 30.12 849 25.07 -7.8 17.9 52 -16 3.3
03:00 1020 30.12 849 25.07 -7.7 18.2 52 -16 3.2
03:05 1020 30.12 849 25.07 -7.4 18.8 52 -15.6 3.9
03:10 1020 30.12 849 25.07 -7.4 18.6 52 -15.8 3.6
03:15 1019 30.09 849 25.07 -7.4 18.8 52 -15.6 4
03:20 1019 30.09 849 25.07 -7.2 19 50 -15.9 3.4
03:25 1019 30.09 849 25.07 -6.9 19.5 49 -15.9 3.5
03:30 1019 30.09 849 25.07 -6.8 19.8 47 -16.2 2.8
03:35 1019 30.09 849 25.07 -6.8 19.7 49 -15.8 3.5
03:40 1019 30.09 849 25.07 -7.1 19.2 51 -15.7 3.8
03:45 1019 30.09 849 25.07 -6.9 19.5 49 -15.9 3.4
03:50 1019 30.09 849 25.07 -5.9 21.4 44 -16.3 2.6
03:55 1019 30.09 849 25.07 -5.1 22.8 42 -16 3.2
04:00 1019 30.09 849 25.07 -4.9 23.2 42 -15.9 3.4
04:05 1019 30.09 849 25.07 -4.7 23.5 42 -15.9 3.5
04:10 1020 30.12 849 25.07 -4.6 23.7 42 -15.6 3.8
04:15 1020 30.12 849 25.07 -4.6 23.7 42 -15.8 3.6
04:20 1019 30.09 849 25.07 -4.6 23.8 42 -15.6 3.8
04:25 1019 30.09 849 25.07 -4.5 23.8 42 -15.6 3.9
04:30 1019 30.09 849 25.07 -4.5 23.9 42 -15.6 3.9
04:35 1019 30.09 849 25.07 -4.4 24 42 -15.4 4.2
04:40 1019 30.09 849 25.07 -4.5 24 42 -15.4 4.3
04:45 1019 30.09 849 25.07 -4.5 23.9 42 -15.6 3.9
04:50 1019 30.09 849 25.07 -4.5 23.9 41 -15.8 3.6
04:55 1020 30.12 849 25.07 -4.5 23.9 42 -15.5 4
05:00 1020 30.12 849 25.07 -4.5 23.8 41 -15.9 3.4
05:05 1020 30.12 849 25.07 -4.5 23.9 42 -15.5 4.1
05:10 1020 30.12 849 25.07 -4.6 23.8 40 -16.2 2.9
05:15 1020 30.12 849 25.07 -4.3 24.2 42 -15.4 4.2
05:20 1020 30.12 849 25.07 -4.5 23.9 43 -15.2 4.6
05:25 1020 30.12 849 25.07 -4.7 23.5 44 -15.1 4.8
05:30 1020 30.12 849 25.07 -4.7 23.6 44 -15.1 4.9
05:35 1020 30.12 849 25.07 -4.4 24.1 43 -15.2 4.7
05:40 1020 30.12 849 25.07 -4.1 24.6 43 -14.9 5.1
05:45 1020 30.12 849 25.07 -4 24.9 43 -14.8 5.4
05:50 1020 30.12 849 25.07 -3.8 25.2 43 -14.7 5.5
05:55 1020 30.12 849 25.07 -3.7 25.3 41 -15 5
06:00 1020 30.12 849 25.07 -3.6 25.5 41 -15.1 4.8
06:05 1020 30.12 849 25.07 -3.6 25.6 40 -15.4 4.3
06:10 1020 30.12 849 25.07 -3.6 25.6 42 -14.8 5.4
06:15 1020 30.12 849 25.07 -3.5 25.7 40 -15.3 4.5
06:20 1020 30.12 849 25.07 -3.4 25.8 40 -15.2 4.6
06:25 1020 30.12 849 25.07 -3.4 25.9 41 -14.8 5.3
06:30 1020 30.12 849 25.07 -3.2 26.3 40 -15.1 4.9
06:35 1020 30.12 849 25.07 -2.9 26.7 40 -14.8 5.3
06:40 1020 30.12 849 25.07 -2.9 26.8 40 -14.8 5.4
06:45 1020 30.12 849 25.07 -2.9 26.8 39 -15.2 4.7
06:50 1020 30.12 849 25.07 -2.8 26.9 41 -14.5 6
06:55 1020 30.12 849 25.07 -2.9 26.8 41 -14.3 6.2
07:00 1020 30.12 849 25.07 -2.8 27 40 -14.5 5.8
07:05 1020 30.12 849 25.07 -2.6 27.3 39 -14.9 5.2
07:10 1020 30.12 849 25.07 -2.6 27.4 39 -14.7 5.5
07:15 1020 30.12 849 25.07 -2.6 27.4 38 -15 4.9
07:20 1019 30.09 849 25.07 -2.4 27.7 38 -14.8 5.4
07:25 1019 30.09 849 25.07 -2.4 27.7 37 -15.3 4.5
07:30 1019 30.09 849 25.07 -2.3 27.9 37 -15.1 4.8
07:35 1019 30.09 849 25.07 -2.1 28.2 36 -15.4 4.3
07:40 1020 30.12 849 25.07 -2 28.4 34 -15.8 3.6
07:45 1020 30.12 849 25.07 -1.8 28.8 34 -15.7 3.7
07:50 1020 30.12 849 25.07 -1.8 28.8 35 -15.3 4.4
07:55 1020 30.12 849 25.07 -1.7 28.9 34 -15.5 4.1
08:00 1020 30.12 849 25.07 -1.6 29.1 34 -15.5 4.1
08:05 1019 30.09 849 25.07 -1.7 29 35 -15.2 4.7
08:10 1019 30.09 849 25.07 -1.6 29 35 -15.4 4.3
08:15 1020 30.12 849 25.07 -1.6 29.2 34 -15.4 4.4
08:20 1020 30.12 849 25.07 -1.5 29.3 33 -15.7 3.7
08:25 1020 30.12 849 25.07 -1.5 29.3 35 -15 4.9
08:30 1020 30.12 849 25.07 -1.5 29.3 35 -15.1 4.9
08:35 1020 30.12 849 25.07 -1.5 29.4 34 -15.4 4.2
08:40 1020 30.12 849 25.07 -1.4 29.5 34 -15.4 4.2
08:45 1020 30.12 849 25.07 -1.4 29.5 34 -15.4 4.3
08:50 1020 30.12 849 25.07 -1.4 29.4 34 -15.2 4.6
08:55 1020 30.12 849 25.07 -1.4 29.5 35 -14.9 5.2
09:00 1020 30.12 849 25.07 -1.4 29.5 35 -15 5
09:05 1020 30.12 849 25.07 -1.4 29.5 35 -15 5.1
09:10 1020 30.12 849 25.07 -1.3 29.6 35 -15 4.9
09:15 1020 30.12 849 25.07 -1.3 29.7 35 -14.8 5.4
09:20 1020 30.12 849 25.07 -1.3 29.7 35 -14.9 5.2
09:25 1020 30.12 849 25.07 -1.2 29.8 35 -14.7 5.5
09:30 1020 30.12 849 25.07 -1.3 29.7 37 -14.3 6.3
09:35 1020 30.12 849 25.07 -1.2 29.8 35 -14.7 5.5
09:40 1020 30.12 849 25.07 -1.2 29.9 36 -14.5 5.8
09:45 1020 30.12 849 25.07 -1.1 30.1 34 -15.1 4.8
09:50 1020 30.12 849 25.07 -1 30.2 35 -14.5 5.8
09:55 1020 30.12 849 25.07 -1 30.2 35 -14.6 5.7
10:00 1020 30.12 849 25.07 -1 30.2 36 -14.2 6.4
10:05 1020 30.12 849 25.07 -0.9 30.3 37 -13.8 7.2
10:10 1020 30.12 849 25.07 -0.8 30.6 37 -13.7 7.3
10:15 1020 30.12 849 25.07 -0.5 31 37 -13.6 7.6
10:20 1020 30.12 849 25.07 -0.5 31.2 36 -13.7 7.3
10:25 1020 30.12 849 25.07 -0.5 31.1 37 -13.6 7.5
10:30 1020 30.12 849 25.07 -0.3 31.4 36 -13.6 7.4
10:35 1020 30.12 849 25.07 -0.2 31.6 37 -13.2 8.2
10:40 1020 30.12 849 25.07 -0.2 31.6 36 -13.6 7.5
10:45 1020 30.12 849 25.07 -0.1 31.7 36 -13.4 8
10:50 1020 30.12 849 25.07 -0.1 31.9 36 -13.6 7.6
10:55 1020 30.12 849 25.07 0 32.1 36 -13.4 8
11:00 1020 30.12 849 25.07 0.2 32.3 36 -13.2 8.3
11:05 1020 30.12 849 25.07 0.2 32.4 35 -13.4 7.8
11:10 1020 30.12 850 25.1 0.3 32.6 36 -13.1 8.4
11:15 1020 30.12 850 25.1 0.4 32.7 36 -12.9 8.7
11:20 1020 30.12 850 25.1 0.6 33 36 -12.8 8.9
11:25 1020 30.12 850 25.1 0.9 33.5 34 -13.5 7.8
11:30 1020 30.12 850 25.1 1.1 33.9 34 -13.3 8.1
11:35 1020 30.12 850 25.1 1.1 34.1 34 -13.2 8.2
11:40 1020 30.12 850 25.1 1.4 34.6 32 -13.4 7.9
11:45 1020 30.12 850 25.1 1.6 34.8 33 -13 8.5
11:50 1020 30.12 850 25.1 1.9 35.4 31 -13.5 7.7
11:55 1020 30.12 849 25.07 2 35.6 31 -13.4 7.9
12:00 1020 30.12 849 25.07 1.9 35.5 32 -13.2 8.2
12:05 1020 30.12 850 25.1 2 35.5 33 -12.7 9.2
12:10 1020 30.12 849 25.07 2.2 35.9 32 -12.7 9.1
12:15 1020 30.12 849 25.07 2.1 35.8 31 -13.2 8.2
12:20 1020 30.12 849 25.07 1.9 35.4 32 -13.1 8.4
12:25 1020 30.12 849 25.07 1.8 35.2 31 -13.5 7.7
12:30 1020 30.12 849 25.07 1.8 35.2 31 -13.6 7.5
12:35 1020 30.12 849 25.07 1.8 35.2 32 -13.1 8.4
12:40 1020 30.12 849 25.07 1.8 35.3 32 -13.1 8.4
12:45 1020 30.12 849 25.07 1.9 35.3 33 -12.8 9
12:50 1020 30.12 849 25.07 1.9 35.5 33 -12.7 9.1
12:55 1020 30.12 849 25.07 1.9 35.5 31 -13.5 7.7
13:00 1020 30.12 849 25.07 2 35.6 32 -13.2 8.2
13:05 1020 30.12 849 25.07 2 35.6 33 -12.8 9
13:10 1020 30.12 849 25.07 2.1 35.8 31 -13.2 8.2
13:15 1020 30.12 849 25.07 2.2 35.9 33 -12.5 9.5
13:20 1020 30.12 849 25.07 2.1 35.8 32 -12.9 8.7
13:25 1020 30.12 849 25.07 2.2 35.9 32 -12.9 8.7
13:30 1020 30.12 849 25.07 2.4 36.3 31 -13.1 8.5
13:35 1019 30.09 849 25.07 2.2 36 32 -12.8 9
13:40 1019 30.09 849 25.07 2.3 36.2 33 -12.5 9.5
13:45 1019 30.09 849 25.07 2.3 36.1 32 -12.7 9.1
13:50 1019 30.09 848 25.04 2.2 36 33 -12.5 9.4
13:55 1019 30.09 848 25.04 2.4 36.3 33 -12.4 9.7
14:00 1019 30.09 848 25.04 2.5 36.6 32 -12.4 9.6
14:05 1019 30.09 849 25.07 2.7 36.9 32 -12.4 9.7
14:10 1019 30.09 848 25.04 2.6 36.7 33 -12.2 10
14:15 1019 30.09 848 25.04 2.7 36.9 33 -12 10.4
14:20 1019 30.09 848 25.04 2.8 37.1 31 -12.8 8.9
14:25 1019 30.09 849 25.07 2.8 37.1 32 -12.4 9.7
14:30 1019 30.09 849 25.07 2.9 37.2 33 -11.9 10.6
14:35 1019 30.09 849 25.07 2.8 37.1 32 -12.2 10.1
14:40 1019 30.09 849 25.07 2.8 37 32 -12.4 9.6
14:45 1019 30.09 849 25.07 2.9 37.2 32 -12.4 9.7
14:50 1019 30.09 849 25.07 2.9 37.3 33 -12 10.4
14:55 1020 30.12 849 25.07 2.9 37.2 32 -12.2 10.1
15:00 1020 30.12 849 25.07 3.1 37.6 32 -12.1 10.2
15:05 1020 30.12 849 25.07 3.1 37.5 32 -12 10.5
15:10 1020 30.12 849 25.07 3.1 37.5 32 -12.2 10.1
15:15 1020 30.12 849 25.07 3 37.4 33 -11.6 11.1
15:20 1020 30.12 849 25.07 3 37.4 34 -11.5 11.2
15:25 1020 30.12 849 25.07 2.9 37.2 34 -11.6 11.1
15:30 1020 30.12 849 25.07 2.9 37.2 32 -12.1 10.2
15:35 1020 30.12 849 25.07 3 37.4 33 -12 10.4
15:40 1020 30.12 849 25.07 3 37.4 32 -12.1 10.3
15:45 1020 30.12 849 25.07 3 37.4 33 -12 10.5
15:50 1020 30.12 849 25.07 3 37.4 33 -11.9 10.6
15:55 1020 30.12 849 25.07 3 37.4 33 -11.8 10.7
16:00 1020 30.12 849 25.07 3.1 37.5 33 -11.7 10.9
16:05 1020 30.12 849 25.07 3.1 37.7 33 -11.6 11.2
16:10 1020 30.12 849 25.07 3.1 37.6 35 -11.1 12
16:15 1020 30.12 849 25.07 3 37.4 34 -11.5 11.4
16:20 1020 30.12 849 25.07 3 37.4 33 -11.6 11.1
16:25 1020 30.12 849 25.07 3 37.5 32 -12.1 10.2
16:30 1020 30.12 849 25.07 3.1 37.6 32 -12 10.4
16:35 1020 30.12 849 25.07 3.2 37.7 31 -12.5 9.5
16:40 1020 30.12 849 25.07 3.3 37.9 34 -11.3 11.6
16:45 1020 30.12 849 25.07 3 37.5 34 -11.3 11.7
16:50 1020 30.12 849 25.07 2.9 37.3 34 -11.6 11.2
16:55 1020 30.12 849 25.07 3 37.5 33 -11.9 10.6
17:00 1020 30.12 849 25.07 3.1 37.5 32 -12.2 10
17:05 1020 30.12 849 25.07 3.1 37.6 32 -12 10.4
17:10 1020 30.12 849 25.07 3 37.4 32 -12 10.4
17:15 1020 30.12 849 25.07 2.9 37.2 32 -12.2 10.1
17:20 1020 30.12 849 25.07 2.8 37.1 32 -12.4 9.7
17:25 1020 30.12 849 25.07 2.8 37.1 32 -12.3 9.9
17:30 1020 30.12 850 25.1 2.7 36.9 32 -12.3 9.9
17:35 1021 30.15 850 25.1 2.6 36.7 33 -12.2 10
17:40 1021 30.15 850 25.1 2.6 36.6 32 -12.6 9.4
17:45 1021 30.15 850 25.1 2.7 36.9 31 -12.9 8.8
17:50 1021 30.15 850 25.1 2.8 37.1 31 -12.8 8.9
17:55 1021 30.15 850 25.1 2.8 37.1 30 -12.9 8.8
18:00 1021 30.15 850 25.1 2.8 37.1 31 -12.8 8.9
18:05 1021 30.15 850 25.1 2.8 37 31 -12.9 8.7
18:10 1021 30.15 850 25.1 2.7 36.8 31 -12.9 8.9
18:15 1021 30.15 850 25.1 2.6 36.6 31 -13.1 8.5
18:20 1021 30.15 850 25.1 2.5 36.5 32 -12.8 9
18:25 1021 30.15 850 25.1 2.4 36.3 32 -12.5 9.4
18:30 1021 30.15 850 25.1 2.2 36 32 -12.8 8.9
18:35 1021 30.15 850 25.1 2.2 36 33 -12.5 9.5
18:40 1021 30.15 851 25.13 2.1 35.8 32 -12.8 9
18:45 1022 30.18 851 25.13 2.1 35.8 34 -12.3 9.9
18:50 1022 30.18 851 25.13 2 35.7 34 -12.4 9.8
18:55 1022 30.18 851 25.13 1.9 35.5 34 -12.3 9.8
19:00 1022 30.18 851 25.13 1.8 35.3 36 -11.8 10.7
19:05 1022 30.18 851 25.13 1.7 35 35 -12.1 10.2
19:10 1022 30.18 851 25.13 1.6 34.9 36 -11.7 10.9
19:15 1022 30.18 851 25.13 1.6 34.8 37 -11.7 11
19:20 1022 30.18 852 25.16 1.5 34.7 36 -11.9 10.5
19:25 1022 30.18 852 25.16 1.5 34.7 36 -11.9 10.5
19:30 1023 30.21 852 25.16 1.5 34.7 36 -11.9 10.5
19:35 1023 30.21 852 25.16 1.4 34.5 38 -11.4 11.5
19:40 1023 30.21 852 25.16 1.3 34.3 39 -11.1 12.1
19:45 1023 30.21 852 25.16 1.1 33.9 40 -11.2 11.9
19:50 1023 30.21 852 25.16 0.9 33.6 40 -11.2 11.8
19:55 1023 30.21 852 25.16 0.9 33.6 38 -11.9 10.6
20:00 1023 30.21 852 25.16 0.8 33.5 39 -11.7 10.9
20:05 1023 30.21 852 25.16 0.7 33.3 39 -11.8 10.8
20:10 1023 30.21 852 25.16 0.6 33.1 40 -11.5 11.2
20:15 1023 30.21 853 25.19 0.6 33 39 -11.9 10.6
20:20 1023 30.21 853 25.19 0.6 33 39 -11.8 10.7
20:25 1024 30.24 853 25.19 0.5 33 39 -11.8 10.7
20:30 1024 30.24 853 25.19 0.5 32.9 40 -11.6 11.1
20:35 1024 30.24 853 25.19 0.5 32.8 39 -12.1 10.3
20:40 1024 30.24 853 25.19 0.5 32.9 38 -12.2 10
20:45 1024 30.24 853 25.19 0.5 32.9 38 -12.1 10.2
20:50 1024 30.24 853 25.19 0.5 32.8 39 -11.9 10.5
20:55 1024 30.24 853 25.19 0.4 32.7 40 -11.8 10.7
21:00 1024 30.24 853 25.19 0.4 32.6 40 -11.8 10.8
21:05 1024 30.24 853 25.19 0.3 32.5 41 -11.6 11.1
21:10 1024 30.24 853 25.19 0.3 32.5 40 -11.8 10.8
21:15 1024 30.24 853 25.19 0.3 32.5 40 -11.7 10.9
21:20 1024 30.24 853 25.19 0.3 32.5 40 -11.7 11
21:25 1024 30.24 853 25.19 0.3 32.6 41 -11.5 11.3
21:30 1024 30.24 854 25.22 0.4 32.7 40 -11.8 10.8
21:35 1024 30.24 854 25.22 0.4 32.7 39 -11.9 10.6
21:40 1024 30.24 854 25.22 0.4 32.8 40 -11.7 10.9
21:45 1024 30.24 854 25.22 0.4 32.8 40 -11.8 10.8
21:50 1025 30.27 854 25.22 0.4 32.8 40 -11.6 11.1
21:55 1025 30.27 854 25.22 0.5 32.8 40 -11.6 11.1
22:00 1024 30.24 854 25.22 0.5 33 39 -11.9 10.6
22:05 1024 30.24 854 25.22 0.7 33.2 40 -11.6 11.2
22:10 1025 30.27 854 25.22 0.7 33.2 40 -11.5 11.3
22:15 1025 30.27 854 25.22 0.6 33 40 -11.4 11.5
22:20 1025 30.27 854 25.22 0.5 32.9 40 -11.5 11.3
22:25 1025 30.27 854 25.22 0.5 32.9 40 -11.5 11.3
22:30 1025 30.27 854 25.22 0.5 32.9 40 -11.6 11.2
22:35 1025 30.27 854 25.22 0.5 32.9 40 -11.5 11.3
22:40 1025 30.27 854 25.22 0.5 32.8 41 -11.4 11.5
22:45 1025 30.27 854 25.22 0.4 32.8 42 -11.1 12
22:50 1025 30.27 854 25.22 0.1 32.1 47 -10 14
22:55 1025 30.27 854 25.22 -0.5 31.1 46 -10.6 12.8
23:00 1025 30.27 854 25.22 -0.5 31 47 -10.6 12.9
23:05 1025 30.27 854 25.22 -0.4 31.3 44 -11.3 11.7
23:10 1025 30.27 854 25.22 -0.2 31.7 44 -11.1 12
23:15 1025 30.27 854 25.22 0 32 43 -11.3 11.7
23:20 1025 30.27 854 25.22 0.1 32.1 42 -11.4 11.5
23:25 1025 30.27 854 25.22 0.1 32.2 42 -11.3 11.7
23:30 1025 30.27 854 25.22 0.1 32.2 43 -11 12.1
23:35 1025 30.27 854 25.22 0 32.1 41 -11.6 11.2
23:40 1025 30.27 854 25.22 0.1 32.2 42 -11.3 11.7
23:45 1025 30.27 854 25.22 0 32.1 42 -11.4 11.5
23:50 1025 30.27 854 25.22 -0 32 43 -11.2 11.9
23:55 1025 30.27 854 25.22 -0.1 31.9 41 -11.7 11
24:00 1025 30.27 854 25.22 -0 31.9 42 -11.4 11.4